<?xml version='1.0' encoding='UTF-8'?><gpx version="1.1" creator="JPX - https://github.com/jenetics/jpx" xmlns="http://www.topografix.com/GPX/1/1"><trk><trkseg><trkpt lat="44.01762201664861" lon="8.180951645517675"><ele>121.0</ele><time>2026-04-04T08:57:13.55Z</time></trkpt><trkpt lat="44.017694637619094" lon="8.181017777356466"><ele>121.0</ele><time>2026-04-04T08:57:16.55Z</time></trkpt><trkpt lat="44.017810756863355" lon="8.181091294139597"><ele>121.0</ele><time>2026-04-04T08:57:18.55Z</time></trkpt><trkpt lat="44.017868937339124" lon="8.181132479102502"><ele>121.0</ele><time>2026-04-04T08:57:19.55Z</time></trkpt><trkpt lat="44.01800242491297" lon="8.181189200830659"><ele>121.0</ele><time>2026-04-04T08:57:21.55Z</time></trkpt><trkpt lat="44.01807664338136" lon="8.181239685816765"><ele>121.0</ele><time>2026-04-04T08:57:22.55Z</time></trkpt><trkpt lat="44.01818482120446" lon="8.181319044691705"><ele>121.0</ele><time>2026-04-04T08:57:24.55Z</time></trkpt><trkpt lat="44.018288211270956" lon="8.181415967256816"><ele>121.0</ele><time>2026-04-04T08:57:26.55Z</time></trkpt><trkpt lat="44.018374638451604" lon="8.181527170959672"><ele>121.0</ele><time>2026-04-04T08:57:28.55Z</time></trkpt><trkpt lat="44.01842424116807" lon="8.181585822370003"><ele>121.0</ele><time>2026-04-04T08:57:29.55Z</time></trkpt><trkpt lat="44.01847805647676" lon="8.181647665520295"><ele>123.16666666666667</ele><time>2026-04-04T08:57:30.55Z</time></trkpt><trkpt lat="44.018519052052255" lon="8.18172521716193"><ele>125.33333333333334</ele><time>2026-04-04T08:57:31.55Z</time></trkpt><trkpt lat="44.0185551616264" lon="8.181813852350034"><ele>127.5</ele><time>2026-04-04T08:57:32.55Z</time></trkpt><trkpt lat="44.018587542094934" lon="8.181916281486256"><ele>129.66666666666666</ele><time>2026-04-04T08:57:33.55Z</time></trkpt><trkpt lat="44.01861600654933" lon="8.18201239161302"><ele>131.83333333333331</ele><time>2026-04-04T08:57:34.55Z</time></trkpt><trkpt lat="44.01866141292675" lon="8.18215674423667"><ele>134.0</ele><time>2026-04-04T08:57:36.55Z</time></trkpt><trkpt lat="44.018717420072804" lon="8.182297007786403"><ele>131.0</ele><time>2026-04-04T08:57:38.55Z</time></trkpt><trkpt lat="44.01877496515494" lon="8.182412949073534"><ele>128.0</ele><time>2026-04-04T08:57:40.55Z</time></trkpt><trkpt lat="44.01885599010935" lon="8.18251406728725"><ele>125.0</ele><time>2026-04-04T08:57:42.55Z</time></trkpt><trkpt lat="44.018940788682684" lon="8.182587419105717"><ele>122.0</ele><time>2026-04-04T08:57:44.55Z</time></trkpt><trkpt lat="44.01900611480483" lon="8.182668743646882"><ele>119.0</ele><time>2026-04-04T08:57:52Z</time></trkpt><trkpt lat="44.01907225467386" lon="8.182714732774992"><ele>125.2</ele><time>2026-04-04T08:57:54Z</time></trkpt><trkpt lat="44.01917710934283" lon="8.182744800163329"><ele>131.4</ele><time>2026-04-04T08:57:56Z</time></trkpt><trkpt lat="44.019270103730435" lon="8.182789577607387"><ele>137.6</ele><time>2026-04-04T08:57:58Z</time></trkpt><trkpt lat="44.019355598487145" lon="8.182868828855192"><ele>143.8</ele><time>2026-04-04T08:58:00Z</time></trkpt><trkpt lat="44.01943280956088" lon="8.182975529042304"><ele>150.0</ele><time>2026-04-04T08:58:02Z</time></trkpt><trkpt lat="44.01953869214332" lon="8.183039101754186"><ele>150.0</ele><time>2026-04-04T08:58:04Z</time></trkpt><trkpt lat="44.01964916877918" lon="8.183091528300254"><ele>150.0</ele><time>2026-04-04T08:58:06Z</time></trkpt><trkpt lat="44.019707297078234" lon="8.183125944904129"><ele>150.0</ele><time>2026-04-04T08:58:07Z</time></trkpt><trkpt lat="44.019814378330096" lon="8.18321250045572"><ele>150.0</ele><time>2026-04-04T08:58:09Z</time></trkpt><trkpt lat="44.01991851105102" lon="8.183283514184886"><ele>150.0</ele><time>2026-04-04T08:58:11Z</time></trkpt><trkpt lat="44.02001711151836" lon="8.183363191544943"><ele>152.0</ele><time>2026-04-04T08:58:13Z</time></trkpt><trkpt lat="44.02010594382546" lon="8.183443868878738"><ele>154.0</ele><time>2026-04-04T08:58:15Z</time></trkpt><trkpt lat="44.02017695367149" lon="8.183505952232192"><ele>156.0</ele><time>2026-04-04T08:58:17Z</time></trkpt><trkpt lat="44.02024430676595" lon="8.183543398253246"><ele>158.0</ele><time>2026-04-04T08:58:21Z</time></trkpt><trkpt lat="44.02031329587986" lon="8.183603029441514"><ele>160.0</ele><time>2026-04-04T08:58:26Z</time></trkpt><trkpt lat="44.02037792931391" lon="8.183608856755738"><ele>162.0</ele><time>2026-04-04T08:58:29Z</time></trkpt><trkpt lat="44.02042772477972" lon="8.183530123828394"><ele>162.0</ele><time>2026-04-04T08:58:34Z</time></trkpt><trkpt lat="44.020376203352214" lon="8.183449899161873"><ele>162.0</ele><time>2026-04-04T08:58:37Z</time></trkpt><trkpt lat="44.02033889722078" lon="8.183366672392175"><ele>162.0</ele><time>2026-04-04T08:58:40Z</time></trkpt><trkpt lat="44.02028724807673" lon="8.183249487171352"><ele>162.0</ele><time>2026-04-04T08:58:43Z</time></trkpt><trkpt lat="44.02024142585756" lon="8.183137788071436"><ele>162.0</ele><time>2026-04-04T08:58:45Z</time></trkpt><trkpt lat="44.0202022427844" lon="8.183046894927507"><ele>162.0</ele><time>2026-04-04T08:58:47Z</time></trkpt><trkpt lat="44.02014282904835" lon="8.182949467506731"><ele>160.0</ele><time>2026-04-04T08:58:50Z</time></trkpt><trkpt lat="44.020079431824804" lon="8.18286808272005"><ele>158.0</ele><time>2026-04-04T08:58:53Z</time></trkpt><trkpt lat="44.02002410237678" lon="8.18279384004874"><ele>156.0</ele><time>2026-04-04T08:58:54.999Z</time></trkpt><trkpt lat="44.01996742718871" lon="8.182724106732078"><ele>154.0</ele><time>2026-04-04T08:58:55.999Z</time></trkpt><trkpt lat="44.01989509352859" lon="8.182635939915532"><ele>152.0</ele><time>2026-04-04T08:58:57.999Z</time></trkpt><trkpt lat="44.01985298998653" lon="8.182554135594673"><ele>150.0</ele><time>2026-04-04T08:58:59.999Z</time></trkpt><trkpt lat="44.01981819845131" lon="8.182472895217629"><ele>150.0</ele><time>2026-04-04T08:59:01.999Z</time></trkpt><trkpt lat="44.01974111625543" lon="8.182356656761135"><ele>150.0</ele><time>2026-04-04T08:59:03.999Z</time></trkpt><trkpt lat="44.01967237123319" lon="8.182292183341726"><ele>150.0</ele><time>2026-04-04T08:59:05.999Z</time></trkpt><trkpt lat="44.019600469328324" lon="8.182210504759702"><ele>150.0</ele><time>2026-04-04T08:59:08.999Z</time></trkpt><trkpt lat="44.01955158296605" lon="8.182151554458672"><ele>150.0</ele><time>2026-04-04T08:59:10.999Z</time></trkpt><trkpt lat="44.019500816063605" lon="8.182078039144354"><ele>150.0</ele><time>2026-04-04T08:59:12.999Z</time></trkpt><trkpt lat="44.019470335999024" lon="8.181996508107241"><ele>153.16666666666666</ele><time>2026-04-04T08:59:15Z</time></trkpt><trkpt lat="44.01945126859224" lon="8.181879594459641"><ele>156.33333333333334</ele><time>2026-04-04T08:59:18Z</time></trkpt><trkpt lat="44.01944216644706" lon="8.181764683210492"><ele>159.5</ele><time>2026-04-04T08:59:20Z</time></trkpt><trkpt lat="44.01942920584816" lon="8.181678008834709"><ele>162.66666666666669</ele><time>2026-04-04T08:59:22Z</time></trkpt><trkpt lat="44.01943866388325" lon="8.181557063752615"><ele>165.83333333333334</ele><time>2026-04-04T08:59:24Z</time></trkpt><trkpt lat="44.0194365450258" lon="8.181452932509043"><ele>169.0</ele><time>2026-04-04T08:59:26Z</time></trkpt><trkpt lat="44.01943048116531" lon="8.181352386186536"><ele>171.16666666666669</ele><time>2026-04-04T08:59:28Z</time></trkpt><trkpt lat="44.01940630690493" lon="8.181249922625703"><ele>173.33333333333334</ele><time>2026-04-04T08:59:31Z</time></trkpt><trkpt lat="44.01939088872586" lon="8.181128224651426"><ele>175.5</ele><time>2026-04-04T08:59:35Z</time></trkpt><trkpt lat="44.01936112638668" lon="8.181046209584947"><ele>177.66666666666666</ele><time>2026-04-04T08:59:37Z</time></trkpt><trkpt lat="44.019333511761104" lon="8.180954898762264"><ele>179.83333333333331</ele><time>2026-04-04T08:59:40Z</time></trkpt><trkpt lat="44.019302451621265" lon="8.180869662320985"><ele>182.0</ele><time>2026-04-04T08:59:43Z</time></trkpt><trkpt lat="44.019219258270866" lon="8.180782919025685"><ele>177.83333333333331</ele><time>2026-04-04T08:59:46Z</time></trkpt><trkpt lat="44.019128596418426" lon="8.180685811840553"><ele>173.66666666666666</ele><time>2026-04-04T08:59:48Z</time></trkpt><trkpt lat="44.01902648696645" lon="8.180694763424949"><ele>169.5</ele><time>2026-04-04T08:59:50Z</time></trkpt><trkpt lat="44.018965159379995" lon="8.18071592454"><ele>165.33333333333334</ele><time>2026-04-04T08:59:52Z</time></trkpt><trkpt lat="44.018896734754776" lon="8.180745052713046"><ele>161.16666666666669</ele><time>2026-04-04T08:59:55Z</time></trkpt><trkpt lat="44.018927204530556" lon="8.18083283333726"><ele>157.0</ele><time>2026-04-04T08:59:59Z</time></trkpt><trkpt lat="44.01892303420073" lon="8.180923557808306"><ele>157.0</ele><time>2026-04-04T09:00:03Z</time></trkpt><trkpt lat="44.018845870924736" lon="8.180829111826164"><ele>157.0</ele><time>2026-04-04T09:00:06Z</time></trkpt><trkpt lat="44.01888153285401" lon="8.180918139033167"><ele>157.0</ele><time>2026-04-04T09:00:16Z</time></trkpt><trkpt lat="44.01894813840926" lon="8.180920495425207"><ele>157.0</ele><time>2026-04-04T09:00:19Z</time></trkpt><trkpt lat="44.018893459170485" lon="8.18082488877064"><ele>157.0</ele><time>2026-04-04T09:00:22Z</time></trkpt><trkpt lat="44.01893976863845" lon="8.180734147328659"><ele>157.0</ele><time>2026-04-04T09:00:26Z</time></trkpt><trkpt lat="44.019021315885766" lon="8.18072525436411"><ele>156.99999999999997</ele><time>2026-04-04T09:00:28Z</time></trkpt><trkpt lat="44.019084917022006" lon="8.180697507273017"><ele>157.0</ele><time>2026-04-04T09:00:31Z</time></trkpt><trkpt lat="44.01915784836355" lon="8.18070590677253"><ele>157.0</ele><time>2026-04-04T09:00:35Z</time></trkpt><trkpt lat="44.019213888566455" lon="8.180759951101605"><ele>157.0</ele><time>2026-04-04T09:00:38Z</time></trkpt><trkpt lat="44.0192711849746" lon="8.18082341097841"><ele>157.0</ele><time>2026-04-04T09:00:41Z</time></trkpt><trkpt lat="44.01930862639684" lon="8.180923225212693"><ele>156.99999999999997</ele><time>2026-04-04T09:00:53Z</time></trkpt><trkpt lat="44.019268240198585" lon="8.18082407521385"><ele>157.0</ele><time>2026-04-04T09:01:07.999Z</time></trkpt><trkpt lat="44.01924671157687" lon="8.180730913782504"><ele>159.85714285714283</ele><time>2026-04-04T09:01:11.999Z</time></trkpt><trkpt lat="44.01920256764526" lon="8.180639990866796"><ele>162.71428571428572</ele><time>2026-04-04T09:01:15.999Z</time></trkpt><trkpt lat="44.01917281726576" lon="8.180542114578245"><ele>165.57142857142856</ele><time>2026-04-04T09:01:19.999Z</time></trkpt><trkpt lat="44.01916648708797" lon="8.180446455090408"><ele>168.42857142857142</ele><time>2026-04-04T09:01:23.001Z</time></trkpt><trkpt lat="44.01918540812248" lon="8.180348321775751"><ele>171.28571428571428</ele><time>2026-04-04T09:01:26.001Z</time></trkpt><trkpt lat="44.01926480081995" lon="8.180304228790265"><ele>174.14285714285714</ele><time>2026-04-04T09:01:39Z</time></trkpt><trkpt lat="44.01932436077439" lon="8.180342320746423"><ele>177.0</ele><time>2026-04-04T09:01:41Z</time></trkpt><trkpt lat="44.01937415799568" lon="8.180415692652694"><ele>177.0</ele><time>2026-04-04T09:01:44Z</time></trkpt><trkpt lat="44.01941233624043" lon="8.180501605047535"><ele>177.0</ele><time>2026-04-04T09:01:47Z</time></trkpt><trkpt lat="44.019450643706065" lon="8.180603364395711"><ele>177.0</ele><time>2026-04-04T09:01:50Z</time></trkpt><trkpt lat="44.01949703597429" lon="8.180698340913644"><ele>177.0</ele><time>2026-04-04T09:01:53Z</time></trkpt><trkpt lat="44.019580864144494" lon="8.180699299584981"><ele>177.0</ele><time>2026-04-04T09:01:56Z</time></trkpt><trkpt lat="44.01961800292786" lon="8.180615856173286"><ele>177.0</ele><time>2026-04-04T09:01:59Z</time></trkpt><trkpt lat="44.01966431047266" lon="8.180518391942863"><ele>177.0</ele><time>2026-04-04T09:02:02Z</time></trkpt><trkpt lat="44.01970482756297" lon="8.180439438381296"><ele>177.0</ele><time>2026-04-04T09:02:05Z</time></trkpt><trkpt lat="44.01975505136688" lon="8.180351955946149"><ele>177.0</ele><time>2026-04-04T09:02:07Z</time></trkpt><trkpt lat="44.019858701557816" lon="8.180274050191738"><ele>177.0</ele><time>2026-04-04T09:02:10Z</time></trkpt><trkpt lat="44.01993387937302" lon="8.180232171158698"><ele>177.0</ele><time>2026-04-04T09:02:12Z</time></trkpt><trkpt lat="44.020008905248226" lon="8.180203078004967"><ele>177.0</ele><time>2026-04-04T09:02:14Z</time></trkpt><trkpt lat="44.02008733900504" lon="8.180179908725567"><ele>180.5</ele><time>2026-04-04T09:02:16Z</time></trkpt><trkpt lat="44.0203231080979" lon="8.180176960049126"><ele>184.0</ele><time>2026-04-04T09:02:19Z</time></trkpt><trkpt lat="44.02040662346879" lon="8.180171232147215"><ele>187.5</ele><time>2026-04-04T09:02:21Z</time></trkpt><trkpt lat="44.02048333540978" lon="8.180168889551949"><ele>191.0</ele><time>2026-04-04T09:02:23Z</time></trkpt><trkpt lat="44.020572151811194" lon="8.180179343524761"><ele>191.0</ele><time>2026-04-04T09:02:25Z</time></trkpt><trkpt lat="44.02067650976327" lon="8.180182307851231"><ele>191.0</ele><time>2026-04-04T09:02:27Z</time></trkpt><trkpt lat="44.02077692020742" lon="8.18016523207594"><ele>191.0</ele><time>2026-04-04T09:02:29Z</time></trkpt><trkpt lat="44.020879759048356" lon="8.1801525665303"><ele>191.0</ele><time>2026-04-04T09:02:31Z</time></trkpt><trkpt lat="44.02097742817172" lon="8.180148526807717"><ele>191.0</ele><time>2026-04-04T09:02:33Z</time></trkpt><trkpt lat="44.02108439778985" lon="8.180142590447245"><ele>192.60000000000002</ele><time>2026-04-04T09:02:35Z</time></trkpt><trkpt lat="44.02114934530958" lon="8.180106686656973"><ele>194.2</ele><time>2026-04-04T09:02:36Z</time></trkpt><trkpt lat="44.021252958442616" lon="8.180071934680706"><ele>195.8</ele><time>2026-04-04T09:02:38Z</time></trkpt><trkpt lat="44.02135184193593" lon="8.179984940616807"><ele>197.39999999999998</ele><time>2026-04-04T09:02:40Z</time></trkpt><trkpt lat="44.0213330755534" lon="8.179885885246115"><ele>199.0</ele><time>2026-04-04T09:02:41Z</time></trkpt><trkpt lat="44.021317751323124" lon="8.179770620027702"><ele>199.0</ele><time>2026-04-04T09:02:44Z</time></trkpt><trkpt lat="44.02126297442047" lon="8.179582096596581"><ele>199.0</ele><time>2026-04-04T09:02:46Z</time></trkpt><trkpt lat="44.02122088106455" lon="8.17945570367991"><ele>199.0</ele><time>2026-04-04T09:02:48Z</time></trkpt><trkpt lat="44.021179469513044" lon="8.179324137942736"><ele>199.0</ele><time>2026-04-04T09:02:50Z</time></trkpt><trkpt lat="44.02117851538277" lon="8.179189710140603"><ele>199.0</ele><time>2026-04-04T09:02:52Z</time></trkpt><trkpt lat="44.02126337873922" lon="8.179143503912446"><ele>198.99999999999997</ele><time>2026-04-04T09:02:54Z</time></trkpt><trkpt lat="44.02132746350466" lon="8.179144382813128"><ele>199.0</ele><time>2026-04-04T09:02:58Z</time></trkpt><trkpt lat="44.02143958828788" lon="8.179135472526902"><ele>199.0</ele><time>2026-04-04T09:03:24.999Z</time></trkpt><trkpt lat="44.02151843471453" lon="8.179124522504221"><ele>199.0</ele><time>2026-04-04T09:03:28Z</time></trkpt><trkpt lat="44.02158279104683" lon="8.179145925163443"><ele>198.99999999999997</ele><time>2026-04-04T09:03:32Z</time></trkpt><trkpt lat="44.02166467770661" lon="8.179156868915461"><ele>199.0</ele><time>2026-04-04T09:03:35Z</time></trkpt><trkpt lat="44.02173526331746" lon="8.179164356255198"><ele>200.99999999999997</ele><time>2026-04-04T09:03:37Z</time></trkpt><trkpt lat="44.02179547243552" lon="8.179104635845171"><ele>203.0</ele><time>2026-04-04T09:03:40Z</time></trkpt><trkpt lat="44.021840395718804" lon="8.179012029555857"><ele>205.0</ele><time>2026-04-04T09:03:42Z</time></trkpt><trkpt lat="44.02190064442392" lon="8.178935545334355"><ele>207.0</ele><time>2026-04-04T09:03:44Z</time></trkpt><trkpt lat="44.021958030327234" lon="8.178869030297317"><ele>208.99999999999997</ele><time>2026-04-04T09:03:45Z</time></trkpt><trkpt lat="44.022003002811" lon="8.178765975765854"><ele>211.0</ele><time>2026-04-04T09:03:46Z</time></trkpt><trkpt lat="44.02203417486386" lon="8.178682862572407"><ele>210.99999999999997</ele><time>2026-04-04T09:03:47Z</time></trkpt><trkpt lat="44.02206030692665" lon="8.178602007780547"><ele>211.0</ele><time>2026-04-04T09:03:48Z</time></trkpt><trkpt lat="44.02209705322715" lon="8.178471698744998"><ele>211.0</ele><time>2026-04-04T09:03:50Z</time></trkpt><trkpt lat="44.02213174731236" lon="8.178363828056652"><ele>211.0</ele><time>2026-04-04T09:03:52Z</time></trkpt><trkpt lat="44.02215725691548" lon="8.17827169943785"><ele>210.99999999999997</ele><time>2026-04-04T09:03:54Z</time></trkpt><trkpt lat="44.022196972203616" lon="8.17814317533193"><ele>211.0</ele><time>2026-04-04T09:03:56Z</time></trkpt><trkpt lat="44.022203352430644" lon="8.178019735078957"><ele>210.49999999999997</ele><time>2026-04-04T09:03:58Z</time></trkpt><trkpt lat="44.022213216546824" lon="8.177907859047998"><ele>210.0</ele><time>2026-04-04T09:04:00Z</time></trkpt><trkpt lat="44.02226927183858" lon="8.177806525009043"><ele>209.5</ele><time>2026-04-04T09:04:02Z</time></trkpt><trkpt lat="44.02228782086033" lon="8.177709388660084"><ele>209.0</ele><time>2026-04-04T09:04:04Z</time></trkpt><trkpt lat="44.022297797234714" lon="8.177619822794354"><ele>208.49999999999997</ele><time>2026-04-04T09:04:06Z</time></trkpt><trkpt lat="44.02231148164496" lon="8.177515374842756"><ele>208.0</ele><time>2026-04-04T09:04:08Z</time></trkpt><trkpt lat="44.02231552117102" lon="8.1774075208132"><ele>209.33333333333331</ele><time>2026-04-04T09:04:10Z</time></trkpt><trkpt lat="44.02229724390755" lon="8.177310374521955"><ele>210.66666666666666</ele><time>2026-04-04T09:04:12Z</time></trkpt><trkpt lat="44.0222637878913" lon="8.177215772191365"><ele>212.0</ele><time>2026-04-04T09:04:14Z</time></trkpt><trkpt lat="44.02221893683085" lon="8.177116960652238"><ele>213.33333333333331</ele><time>2026-04-04T09:04:17Z</time></trkpt><trkpt lat="44.02215787290107" lon="8.177014107136063"><ele>214.66666666666666</ele><time>2026-04-04T09:04:20Z</time></trkpt><trkpt lat="44.02211779376115" lon="8.176945612376592"><ele>216.0</ele><time>2026-04-04T09:04:22Z</time></trkpt><trkpt lat="44.02205760876568" lon="8.176844558922234"><ele>216.0</ele><time>2026-04-04T09:04:24Z</time></trkpt><trkpt lat="44.02200120024349" lon="8.176752042120675"><ele>216.0</ele><time>2026-04-04T09:04:26Z</time></trkpt><trkpt lat="44.021920355612075" lon="8.176651067941028"><ele>216.0</ele><time>2026-04-04T09:04:27Z</time></trkpt><trkpt lat="44.021905710302605" lon="8.1765498094184"><ele>216.0</ele><time>2026-04-04T09:04:29Z</time></trkpt><trkpt lat="44.02190037343265" lon="8.176447036704309"><ele>216.0</ele><time>2026-04-04T09:04:31Z</time></trkpt><trkpt lat="44.02191894448637" lon="8.176346141341666"><ele>216.0</ele><time>2026-04-04T09:04:33Z</time></trkpt><trkpt lat="44.021975382696375" lon="8.176285380740767"><ele>218.0</ele><time>2026-04-04T09:04:35Z</time></trkpt><trkpt lat="44.02206028009604" lon="8.17626099762119"><ele>220.0</ele><time>2026-04-04T09:04:37Z</time></trkpt><trkpt lat="44.02216698627091" lon="8.176265874716295"><ele>222.0</ele><time>2026-04-04T09:04:39Z</time></trkpt><trkpt lat="44.02224671861058" lon="8.176277362059308"><ele>224.0</ele><time>2026-04-04T09:04:41Z</time></trkpt><trkpt lat="44.02232155092557" lon="8.17626741724086"><ele>226.0</ele><time>2026-04-04T09:04:43Z</time></trkpt><trkpt lat="44.02240131493292" lon="8.176268167585258"><ele>228.0</ele><time>2026-04-04T09:04:45Z</time></trkpt><trkpt lat="44.0225031195746" lon="8.176252927095634"><ele>228.0</ele><time>2026-04-04T09:04:47Z</time></trkpt><trkpt lat="44.022598166817666" lon="8.176215039528106"><ele>228.0</ele><time>2026-04-04T09:04:49Z</time></trkpt><trkpt lat="44.02268598455412" lon="8.176171879551283"><ele>228.0</ele><time>2026-04-04T09:04:51Z</time></trkpt><trkpt lat="44.02274937663168" lon="8.176155871709948"><ele>228.0</ele><time>2026-04-04T09:04:54Z</time></trkpt><trkpt lat="44.022858671773214" lon="8.17610827502621"><ele>228.0</ele><time>2026-04-04T09:04:57Z</time></trkpt><trkpt lat="44.02292260554885" lon="8.17606659838183"><ele>228.0</ele><time>2026-04-04T09:04:58Z</time></trkpt><trkpt lat="44.02304508548445" lon="8.17601341643933"><ele>228.0</ele><time>2026-04-04T09:04:59Z</time></trkpt><trkpt lat="44.02312894468869" lon="8.175919257804999"><ele>228.0</ele><time>2026-04-04T09:05:01Z</time></trkpt><trkpt lat="44.02316505178532" lon="8.17574955124949"><ele>228.0</ele><time>2026-04-04T09:05:03Z</time></trkpt><trkpt lat="44.02319651812006" lon="8.175646772725239"><ele>228.0</ele><time>2026-04-04T09:05:04Z</time></trkpt><trkpt lat="44.023242704016674" lon="8.175569504614074"><ele>228.0</ele><time>2026-04-04T09:05:05Z</time></trkpt><trkpt lat="44.02329312641371" lon="8.175431476355312"><ele>231.16666666666666</ele><time>2026-04-04T09:05:07Z</time></trkpt><trkpt lat="44.02335518687953" lon="8.175376840679407"><ele>234.33333333333331</ele><time>2026-04-04T09:05:09Z</time></trkpt><trkpt lat="44.02343737806533" lon="8.175358035212486"><ele>237.5</ele><time>2026-04-04T09:05:10.999Z</time></trkpt><trkpt lat="44.0234940528915" lon="8.175404644968554"><ele>240.66666666666666</ele><time>2026-04-04T09:05:11.999Z</time></trkpt><trkpt lat="44.023580304233334" lon="8.175314272194468"><ele>243.83333333333331</ele><time>2026-04-04T09:05:13.999Z</time></trkpt><trkpt lat="44.02363811613346" lon="8.175231961927304"><ele>247.0</ele><time>2026-04-04T09:05:15.999Z</time></trkpt><trkpt lat="44.02365601426334" lon="8.17509837423937"><ele>246.99999999999997</ele><time>2026-04-04T09:05:17.999Z</time></trkpt><trkpt lat="44.02362378202866" lon="8.174981250981224"><ele>247.0</ele><time>2026-04-04T09:05:18.999Z</time></trkpt><trkpt lat="44.023572809101196" lon="8.17488253749885"><ele>247.0</ele><time>2026-04-04T09:05:20.999Z</time></trkpt><trkpt lat="44.02352392321803" lon="8.174821739728351"><ele>247.0</ele><time>2026-04-04T09:05:22.999Z</time></trkpt><trkpt lat="44.02345996071417" lon="8.174715712635447"><ele>246.99999999999997</ele><time>2026-04-04T09:05:25.999Z</time></trkpt><trkpt lat="44.0234817200141" lon="8.174622364267412"><ele>247.0</ele><time>2026-04-04T09:05:28.999Z</time></trkpt><trkpt lat="44.02355070614408" lon="8.174646621668758"><ele>247.0</ele><time>2026-04-04T09:05:31.999Z</time></trkpt><trkpt lat="44.0237127332525" lon="8.174648483477098"><ele>247.0</ele><time>2026-04-04T09:05:34Z</time></trkpt><trkpt lat="44.02378017042997" lon="8.174698238432008"><ele>247.0</ele><time>2026-04-04T09:05:36Z</time></trkpt><trkpt lat="44.02380199467949" lon="8.174804750168395"><ele>247.0</ele><time>2026-04-04T09:05:42Z</time></trkpt><trkpt lat="44.02380509278253" lon="8.174923482383473"><ele>247.0</ele><time>2026-04-04T09:05:44Z</time></trkpt><trkpt lat="44.02378988254867" lon="8.17502413316455"><ele>246.99999999999997</ele><time>2026-04-04T09:05:46Z</time></trkpt><trkpt lat="44.023732719134784" lon="8.175082365357948"><ele>247.0</ele><time>2026-04-04T09:05:48Z</time></trkpt><trkpt lat="44.02370051935314" lon="8.175171871444292"><ele>247.0</ele><time>2026-04-04T09:05:50Z</time></trkpt><trkpt lat="44.02368344359701" lon="8.175289659302653"><ele>247.0</ele><time>2026-04-04T09:05:53Z</time></trkpt><trkpt lat="44.02370353000284" lon="8.17542531071743"><ele>246.99999999999997</ele><time>2026-04-04T09:05:55Z</time></trkpt><trkpt lat="44.02371105761868" lon="8.17553966615451"><ele>247.0</ele><time>2026-04-04T09:05:57Z</time></trkpt><trkpt lat="44.02369530921632" lon="8.175652989926245"><ele>247.99999999999997</ele><time>2026-04-04T09:05:59Z</time></trkpt><trkpt lat="44.023673301668694" lon="8.175737008822212"><ele>249.0</ele><time>2026-04-04T09:06:01Z</time></trkpt><trkpt lat="44.02362200993509" lon="8.175814126085967"><ele>250.0</ele><time>2026-04-04T09:06:03Z</time></trkpt><trkpt lat="44.02357362720474" lon="8.175937346139749"><ele>251.0</ele><time>2026-04-04T09:06:05Z</time></trkpt><trkpt lat="44.023543905879436" lon="8.176017441510522"><ele>251.99999999999997</ele><time>2026-04-04T09:06:06Z</time></trkpt><trkpt lat="44.0235174021856" lon="8.17609734594262"><ele>253.0</ele><time>2026-04-04T09:06:07Z</time></trkpt><trkpt lat="44.02345689724059" lon="8.176250976829976"><ele>252.99999999999997</ele><time>2026-04-04T09:06:09Z</time></trkpt><trkpt lat="44.023413989849786" lon="8.176316139298399"><ele>253.0</ele><time>2026-04-04T09:06:10Z</time></trkpt><trkpt lat="44.023304691831875" lon="8.176312002412034"><ele>253.0</ele><time>2026-04-04T09:06:12Z</time></trkpt><trkpt lat="44.023217366231904" lon="8.176337196038054"><ele>253.0</ele><time>2026-04-04T09:06:14Z</time></trkpt><trkpt lat="44.02313866961193" lon="8.17636351259229"><ele>252.99999999999997</ele><time>2026-04-04T09:06:17Z</time></trkpt><trkpt lat="44.02308586165345" lon="8.176315294588356"><ele>253.0</ele><time>2026-04-04T09:06:41Z</time></trkpt><trkpt lat="44.02314975079398" lon="8.176260585795468"><ele>252.16666666666666</ele><time>2026-04-04T09:06:55Z</time></trkpt><trkpt lat="44.02309442862934" lon="8.176334898683008"><ele>251.33333333333331</ele><time>2026-04-04T09:06:59Z</time></trkpt><trkpt lat="44.02301665591879" lon="8.17633546686577"><ele>250.5</ele><time>2026-04-04T09:07:02Z</time></trkpt><trkpt lat="44.02293660381328" lon="8.176386967952602"><ele>249.66666666666669</ele><time>2026-04-04T09:07:04Z</time></trkpt><trkpt lat="44.02285622875003" lon="8.176463520464521"><ele>248.83333333333334</ele><time>2026-04-04T09:07:06Z</time></trkpt><trkpt lat="44.022790763445876" lon="8.176575903906995"><ele>248.0</ele><time>2026-04-04T09:07:08Z</time></trkpt><trkpt lat="44.02277172905987" lon="8.176660742042378"><ele>248.00000000000003</ele><time>2026-04-04T09:07:10Z</time></trkpt><trkpt lat="44.02276968200805" lon="8.176754753046014"><ele>248.0</ele><time>2026-04-04T09:07:12Z</time></trkpt><trkpt lat="44.02275700175641" lon="8.176850767885911"><ele>248.0</ele><time>2026-04-04T09:07:13.999Z</time></trkpt><trkpt lat="44.02277788086708" lon="8.176963461755445"><ele>248.0</ele><time>2026-04-04T09:07:15.999Z</time></trkpt><trkpt lat="44.022807474449344" lon="8.177089016154316"><ele>248.00000000000003</ele><time>2026-04-04T09:07:17.999Z</time></trkpt><trkpt lat="44.022867573455905" lon="8.177215574547661"><ele>248.0</ele><time>2026-04-04T09:07:19.999Z</time></trkpt><trkpt lat="44.022918354456415" lon="8.177353073190456"><ele>247.2</ele><time>2026-04-04T09:07:21.999Z</time></trkpt><trkpt lat="44.02296394042476" lon="8.177476993605357"><ele>246.4</ele><time>2026-04-04T09:07:23.999Z</time></trkpt><trkpt lat="44.02299024355286" lon="8.177610417781423"><ele>245.59999999999997</ele><time>2026-04-04T09:07:25.999Z</time></trkpt><trkpt lat="44.0229957940616" lon="8.177741843387865"><ele>244.79999999999998</ele><time>2026-04-04T09:07:27.999Z</time></trkpt><trkpt lat="44.02301056743649" lon="8.177877530093355"><ele>244.0</ele><time>2026-04-04T09:07:29.999Z</time></trkpt><trkpt lat="44.023044734885815" lon="8.17801050189144"><ele>244.0</ele><time>2026-04-04T09:07:31.999Z</time></trkpt><trkpt lat="44.02311533036041" lon="8.178125701381044"><ele>243.99999999999997</ele><time>2026-04-04T09:07:33.999Z</time></trkpt><trkpt lat="44.02318836841991" lon="8.178232505838228"><ele>243.99999999999997</ele><time>2026-04-04T09:07:35.999Z</time></trkpt><trkpt lat="44.023249943132065" lon="8.17835061666016"><ele>244.0</ele><time>2026-04-04T09:07:37.999Z</time></trkpt><trkpt lat="44.02329067216318" lon="8.178478792534552"><ele>244.0</ele><time>2026-04-04T09:07:40Z</time></trkpt><trkpt lat="44.02324866686203" lon="8.178610226158826"><ele>243.6</ele><time>2026-04-04T09:07:42Z</time></trkpt><trkpt lat="44.0231702575969" lon="8.178691991329936"><ele>243.2</ele><time>2026-04-04T09:07:44Z</time></trkpt><trkpt lat="44.02307944318707" lon="8.178749663450537"><ele>242.79999999999998</ele><time>2026-04-04T09:07:46Z</time></trkpt><trkpt lat="44.023011136336926" lon="8.178839762759644"><ele>242.39999999999998</ele><time>2026-04-04T09:07:48Z</time></trkpt><trkpt lat="44.022948605788486" lon="8.178927903811648"><ele>242.0</ele><time>2026-04-04T09:07:50Z</time></trkpt><trkpt lat="44.02290783584771" lon="8.17901923942098"><ele>242.00000000000003</ele><time>2026-04-04T09:07:53Z</time></trkpt><trkpt lat="44.02283803151055" lon="8.178961896085035"><ele>242.0</ele><time>2026-04-04T09:07:59Z</time></trkpt><trkpt lat="44.022773672767855" lon="8.17890392909259"><ele>242.0</ele><time>2026-04-04T09:08:03Z</time></trkpt><trkpt lat="44.02274258903406" lon="8.178820414344294"><ele>242.0</ele><time>2026-04-04T09:08:17Z</time></trkpt><trkpt lat="44.0228003912634" lon="8.178871348742579"><ele>242.00000000000003</ele><time>2026-04-04T09:08:23Z</time></trkpt><trkpt lat="44.022844541091" lon="8.17897541154881"><ele>242.0</ele><time>2026-04-04T09:08:26Z</time></trkpt><trkpt lat="44.02289581970279" lon="8.179072386196554"><ele>243.00000000000003</ele><time>2026-04-04T09:08:29Z</time></trkpt><trkpt lat="44.022898442301226" lon="8.179164027968485"><ele>244.0</ele><time>2026-04-04T09:08:31Z</time></trkpt><trkpt lat="44.02292228372275" lon="8.179369585946663"><ele>245.0</ele><time>2026-04-04T09:08:33Z</time></trkpt><trkpt lat="44.02293468276696" lon="8.17945630253562"><ele>246.0</ele><time>2026-04-04T09:08:34Z</time></trkpt><trkpt lat="44.02291427199254" lon="8.179564025919717"><ele>247.00000000000003</ele><time>2026-04-04T09:08:35Z</time></trkpt><trkpt lat="44.022923285969306" lon="8.179659915900661"><ele>248.0</ele><time>2026-04-04T09:08:36Z</time></trkpt><trkpt lat="44.02291813697083" lon="8.179757519940777"><ele>248.00000000000003</ele><time>2026-04-04T09:08:37Z</time></trkpt><trkpt lat="44.022898315730274" lon="8.179848428608205"><ele>248.0</ele><time>2026-04-04T09:08:38Z</time></trkpt><trkpt lat="44.02286760222652" lon="8.17993386741943"><ele>248.0</ele><time>2026-04-04T09:08:39Z</time></trkpt><trkpt lat="44.02279131066646" lon="8.180086739077552"><ele>248.0</ele><time>2026-04-04T09:08:41Z</time></trkpt><trkpt lat="44.0227713400097" lon="8.180182605282189"><ele>248.00000000000003</ele><time>2026-04-04T09:08:42Z</time></trkpt><trkpt lat="44.022786136235396" lon="8.180280399703733"><ele>248.0</ele><time>2026-04-04T09:08:43Z</time></trkpt><trkpt lat="44.02279332450278" lon="8.180367918881847"><ele>249.14285714285717</ele><time>2026-04-04T09:08:44Z</time></trkpt><trkpt lat="44.02280518125496" lon="8.18045413101192"><ele>250.2857142857143</ele><time>2026-04-04T09:08:45Z</time></trkpt><trkpt lat="44.022833673572464" lon="8.180546638286655"><ele>251.42857142857144</ele><time>2026-04-04T09:08:46Z</time></trkpt><trkpt lat="44.02281355092081" lon="8.180645246845861"><ele>252.57142857142856</ele><time>2026-04-04T09:08:47Z</time></trkpt><trkpt lat="44.02281467181422" lon="8.180744045756732"><ele>253.7142857142857</ele><time>2026-04-04T09:08:48Z</time></trkpt><trkpt lat="44.02279959035255" lon="8.180834877294313"><ele>254.85714285714283</ele><time>2026-04-04T09:08:49Z</time></trkpt><trkpt lat="44.02275791308506" lon="8.180907744757565"><ele>256.0</ele><time>2026-04-04T09:08:50Z</time></trkpt><trkpt lat="44.0227272077565" lon="8.180985104629048"><ele>257.6</ele><time>2026-04-04T09:08:51Z</time></trkpt><trkpt lat="44.02262426676719" lon="8.18108230640826"><ele>259.20000000000005</ele><time>2026-04-04T09:08:53Z</time></trkpt><trkpt lat="44.02251766153973" lon="8.181144818620112"><ele>260.79999999999995</ele><time>2026-04-04T09:08:55Z</time></trkpt><trkpt lat="44.022446867677274" lon="8.18122003313517"><ele>262.4</ele><time>2026-04-04T09:08:57Z</time></trkpt><trkpt lat="44.02235362277396" lon="8.18126633347245"><ele>264.0</ele><time>2026-04-04T09:08:59Z</time></trkpt><trkpt lat="44.02227996079827" lon="8.181368886422886"><ele>262.8</ele><time>2026-04-04T09:09:01Z</time></trkpt><trkpt lat="44.02222964579665" lon="8.181477481012642"><ele>261.59999999999997</ele><time>2026-04-04T09:09:03Z</time></trkpt><trkpt lat="44.02218478169412" lon="8.18159342490985"><ele>260.4</ele><time>2026-04-04T09:09:05Z</time></trkpt><trkpt lat="44.022175201813965" lon="8.181723207722028"><ele>259.2</ele><time>2026-04-04T09:09:07Z</time></trkpt><trkpt lat="44.02220665486623" lon="8.181855927075862"><ele>258.0</ele><time>2026-04-04T09:09:09Z</time></trkpt><trkpt lat="44.02228306861331" lon="8.181904654327115"><ele>258.0</ele><time>2026-04-04T09:09:11Z</time></trkpt><trkpt lat="44.02233596799684" lon="8.181856038039289"><ele>258.0</ele><time>2026-04-04T09:09:14Z</time></trkpt><trkpt lat="44.022422230011806" lon="8.18171639047513"><ele>258.0</ele><time>2026-04-04T09:09:16.999Z</time></trkpt><trkpt lat="44.02249952058241" lon="8.181650027412534"><ele>258.0</ele><time>2026-04-04T09:09:18.999Z</time></trkpt><trkpt lat="44.02256188834082" lon="8.181555243804171"><ele>258.0</ele><time>2026-04-04T09:09:20.999Z</time></trkpt><trkpt lat="44.02266838845637" lon="8.181422880417147"><ele>259.2</ele><time>2026-04-04T09:09:22.999Z</time></trkpt><trkpt lat="44.022744085095994" lon="8.181320796352797"><ele>260.4</ele><time>2026-04-04T09:09:24.999Z</time></trkpt><trkpt lat="44.02282661617223" lon="8.18122579766431"><ele>261.59999999999997</ele><time>2026-04-04T09:09:26.999Z</time></trkpt><trkpt lat="44.022909082898146" lon="8.181147465296615"><ele>262.8</ele><time>2026-04-04T09:09:28.999Z</time></trkpt><trkpt lat="44.02299962921241" lon="8.181079170869712"><ele>264.0</ele><time>2026-04-04T09:09:30.999Z</time></trkpt><trkpt lat="44.02307389338911" lon="8.180973231781577"><ele>264.0</ele><time>2026-04-04T09:09:32.999Z</time></trkpt><trkpt lat="44.02314149958306" lon="8.180883737815927"><ele>264.0</ele><time>2026-04-04T09:09:34.999Z</time></trkpt><trkpt lat="44.02319484538766" lon="8.180788329367408"><ele>264.0</ele><time>2026-04-04T09:09:36.999Z</time></trkpt><trkpt lat="44.0232083714194" lon="8.180659795618011"><ele>264.0</ele><time>2026-04-04T09:09:38.999Z</time></trkpt><trkpt lat="44.023206775766866" lon="8.180516841694507"><ele>264.0</ele><time>2026-04-04T09:09:40.999Z</time></trkpt><trkpt lat="44.02322889853321" lon="8.180422263303512"><ele>264.0</ele><time>2026-04-04T09:09:42.999Z</time></trkpt><trkpt lat="44.02323634208206" lon="8.18029929725092"><ele>262.0</ele><time>2026-04-04T09:09:45Z</time></trkpt><trkpt lat="44.023298933555246" lon="8.18016716032696"><ele>260.0</ele><time>2026-04-04T09:09:47Z</time></trkpt><trkpt lat="44.02331513045745" lon="8.180004237349365"><ele>258.0</ele><time>2026-04-04T09:09:49Z</time></trkpt><trkpt lat="44.02329126562503" lon="8.179847151087541"><ele>256.0</ele><time>2026-04-04T09:09:51Z</time></trkpt><trkpt lat="44.02328551887282" lon="8.179667454670055"><ele>261.2</ele><time>2026-04-04T09:09:53Z</time></trkpt><trkpt lat="44.02332308099307" lon="8.179535755503888"><ele>266.40000000000003</ele><time>2026-04-04T09:09:55Z</time></trkpt><trkpt lat="44.02339158496544" lon="8.17940274070864"><ele>271.6</ele><time>2026-04-04T09:09:57Z</time></trkpt><trkpt lat="44.023458933874345" lon="8.179262433153502"><ele>276.8</ele><time>2026-04-04T09:09:59Z</time></trkpt><trkpt lat="44.023527367620936" lon="8.179146259980348"><ele>282.0</ele><time>2026-04-04T09:10:01Z</time></trkpt><trkpt lat="44.02363206230129" lon="8.179061645190327"><ele>281.1666666666667</ele><time>2026-04-04T09:10:03Z</time></trkpt><trkpt lat="44.02373589177672" lon="8.17898072361748"><ele>280.3333333333333</ele><time>2026-04-04T09:10:05Z</time></trkpt><trkpt lat="44.02383703297528" lon="8.17889037466589"><ele>279.5</ele><time>2026-04-04T09:10:07Z</time></trkpt><trkpt lat="44.02389340727107" lon="8.178843782601701"><ele>278.66666666666663</ele><time>2026-04-04T09:10:08Z</time></trkpt><trkpt lat="44.02394441024975" lon="8.178779467824478"><ele>277.8333333333333</ele><time>2026-04-04T09:10:09Z</time></trkpt><trkpt lat="44.02398748963617" lon="8.178712033350998"><ele>277.0</ele><time>2026-04-04T09:10:10Z</time></trkpt><trkpt lat="44.02403632175519" lon="8.178646735397459"><ele>277.0</ele><time>2026-04-04T09:10:11Z</time></trkpt><trkpt lat="44.02409585849536" lon="8.17849955973212"><ele>277.0</ele><time>2026-04-04T09:10:13Z</time></trkpt><trkpt lat="44.02408218438257" lon="8.178407314373924"><ele>277.0</ele><time>2026-04-04T09:10:14Z</time></trkpt><trkpt lat="44.02401236985228" lon="8.178263393958883"><ele>277.0</ele><time>2026-04-04T09:10:16Z</time></trkpt><trkpt lat="44.02396659059569" lon="8.1781893189165"><ele>277.0</ele><time>2026-04-04T09:10:17Z</time></trkpt><trkpt lat="44.02389245180888" lon="8.1780731564347"><ele>277.4</ele><time>2026-04-04T09:10:19Z</time></trkpt><trkpt lat="44.02383663537205" lon="8.17792661468847"><ele>277.79999999999995</ele><time>2026-04-04T09:10:21Z</time></trkpt><trkpt lat="44.02383235687371" lon="8.177838767677008"><ele>278.2</ele><time>2026-04-04T09:10:22Z</time></trkpt><trkpt lat="44.023879663452064" lon="8.177749934556342"><ele>278.59999999999997</ele><time>2026-04-04T09:10:23Z</time></trkpt><trkpt lat="44.02397882602417" lon="8.177665510170145"><ele>279.0</ele><time>2026-04-04T09:10:25Z</time></trkpt><trkpt lat="44.024065538468676" lon="8.177670271141759"><ele>278.99999999999994</ele><time>2026-04-04T09:10:27Z</time></trkpt><trkpt lat="44.02412963786291" lon="8.177653487330524"><ele>279.0</ele><time>2026-04-04T09:10:28Z</time></trkpt><trkpt lat="44.024197969406956" lon="8.177636688328079"><ele>279.0</ele><time>2026-04-04T09:10:29Z</time></trkpt><trkpt lat="44.02427753107757" lon="8.177617467330977"><ele>279.0</ele><time>2026-04-04T09:10:31Z</time></trkpt><trkpt lat="44.024338336007396" lon="8.177570606243094"><ele>279.0</ele><time>2026-04-04T09:10:33Z</time></trkpt><trkpt lat="44.02440672442751" lon="8.177553781940668"><ele>278.99999999999994</ele><time>2026-04-04T09:10:34Z</time></trkpt><trkpt lat="44.02449133972546" lon="8.177565153636445"><ele>279.0</ele><time>2026-04-04T09:10:36Z</time></trkpt><trkpt lat="44.024589824573866" lon="8.177550552166272"><ele>280.4</ele><time>2026-04-04T09:10:38Z</time></trkpt><trkpt lat="44.02467964173672" lon="8.177555957594828"><ele>281.79999999999995</ele><time>2026-04-04T09:10:40Z</time></trkpt><trkpt lat="44.02477612333262" lon="8.177534123910295"><ele>283.20000000000005</ele><time>2026-04-04T09:10:42Z</time></trkpt><trkpt lat="44.02483647262975" lon="8.177614176935926"><ele>284.6</ele><time>2026-04-04T09:10:44Z</time></trkpt><trkpt lat="44.02483099050373" lon="8.177474786827995"><ele>286.0</ele><time>2026-04-04T09:11:05Z</time></trkpt><trkpt lat="44.0247615943025" lon="8.177320209060062"><ele>287.3333333333333</ele><time>2026-04-04T09:11:10Z</time></trkpt><trkpt lat="44.02481177201214" lon="8.177409722024574"><ele>288.66666666666663</ele><time>2026-04-04T09:11:20.999Z</time></trkpt><trkpt lat="44.02489405004681" lon="8.17747579223177"><ele>290.0</ele><time>2026-04-04T09:11:21.999Z</time></trkpt><trkpt lat="44.02483672037716" lon="8.177526736514686"><ele>291.3333333333333</ele><time>2026-04-04T09:11:38.032Z</time></trkpt><trkpt lat="44.02482657385" lon="8.177624433945658"><ele>292.6666666666667</ele><time>2026-04-04T09:11:43.03Z</time></trkpt><trkpt lat="44.0247977378056" lon="8.177713950718084"><ele>294.0</ele><time>2026-04-04T09:11:45.03Z</time></trkpt><trkpt lat="44.024836624012444" lon="8.177626432959693"><ele>294.0</ele><time>2026-04-04T09:11:57.999Z</time></trkpt><trkpt lat="44.02494502783509" lon="8.177527263189877"><ele>294.0</ele><time>2026-04-04T09:11:59.999Z</time></trkpt><trkpt lat="44.02502183548221" lon="8.177508776826985"><ele>294.0</ele><time>2026-04-04T09:12:01.999Z</time></trkpt><trkpt lat="44.02508619325934" lon="8.177508687075797"><ele>294.0</ele><time>2026-04-04T09:12:04Z</time></trkpt><trkpt lat="44.02515304081474" lon="8.1774924652461"><ele>294.0</ele><time>2026-04-04T09:12:07Z</time></trkpt><trkpt lat="44.025263973029865" lon="8.17748714767014"><ele>294.1666666666667</ele><time>2026-04-04T09:12:10Z</time></trkpt><trkpt lat="44.02533370126429" lon="8.177469615136985"><ele>294.3333333333333</ele><time>2026-04-04T09:12:12Z</time></trkpt><trkpt lat="44.025406725457465" lon="8.177450787667128"><ele>294.5</ele><time>2026-04-04T09:12:14Z</time></trkpt><trkpt lat="44.025467016193296" lon="8.17740261650355"><ele>294.66666666666663</ele><time>2026-04-04T09:12:16Z</time></trkpt><trkpt lat="44.025520553655994" lon="8.177343474990474"><ele>294.8333333333333</ele><time>2026-04-04T09:12:18Z</time></trkpt><trkpt lat="44.025580775405075" lon="8.17725200544248"><ele>295.0</ele><time>2026-04-04T09:12:21Z</time></trkpt><trkpt lat="44.02560541465507" lon="8.177140685041419"><ele>295.0</ele><time>2026-04-04T09:12:23Z</time></trkpt><trkpt lat="44.025609849245036" lon="8.177013970659845"><ele>295.0</ele><time>2026-04-04T09:12:25Z</time></trkpt><trkpt lat="44.02563277585276" lon="8.176882628541776"><ele>295.0</ele><time>2026-04-04T09:12:27Z</time></trkpt><trkpt lat="44.02565431087921" lon="8.176737576439168"><ele>295.0</ele><time>2026-04-04T09:12:29Z</time></trkpt><trkpt lat="44.025669264613235" lon="8.176579267805696"><ele>295.0</ele><time>2026-04-04T09:12:31Z</time></trkpt><trkpt lat="44.02569328710747" lon="8.176452766998217"><ele>294.2</ele><time>2026-04-04T09:12:33Z</time></trkpt><trkpt lat="44.02572445586159" lon="8.176320111935935"><ele>293.4</ele><time>2026-04-04T09:12:35Z</time></trkpt><trkpt lat="44.025755931365644" lon="8.176193978438342"><ele>292.6</ele><time>2026-04-04T09:12:37Z</time></trkpt><trkpt lat="44.02575571046966" lon="8.17606855290089"><ele>291.8</ele><time>2026-04-04T09:12:39Z</time></trkpt><trkpt lat="44.02573713303478" lon="8.175948593106593"><ele>291.0</ele><time>2026-04-04T09:12:41Z</time></trkpt><trkpt lat="44.02572228443179" lon="8.175816796775731"><ele>291.0</ele><time>2026-04-04T09:12:43Z</time></trkpt><trkpt lat="44.025676131392295" lon="8.175686585429723"><ele>291.0</ele><time>2026-04-04T09:12:45Z</time></trkpt><trkpt lat="44.02568949911" lon="8.175542768900147"><ele>291.0</ele><time>2026-04-04T09:12:47Z</time></trkpt><trkpt lat="44.0257192508289" lon="8.17540910180966"><ele>291.0</ele><time>2026-04-04T09:12:49Z</time></trkpt><trkpt lat="44.02578473435846" lon="8.175314790456746"><ele>291.0</ele><time>2026-04-04T09:12:51Z</time></trkpt><trkpt lat="44.025841754911944" lon="8.175238533287086"><ele>291.3333333333333</ele><time>2026-04-04T09:12:53Z</time></trkpt><trkpt lat="44.02589196274662" lon="8.175141871216749"><ele>291.6666666666667</ele><time>2026-04-04T09:12:55Z</time></trkpt><trkpt lat="44.025911266773164" lon="8.17501308552569"><ele>292.0</ele><time>2026-04-04T09:12:57Z</time></trkpt><trkpt lat="44.02585558853561" lon="8.174907693944132"><ele>292.33333333333337</ele><time>2026-04-04T09:12:59Z</time></trkpt><trkpt lat="44.02580124834993" lon="8.174811818054373"><ele>292.6666666666667</ele><time>2026-04-04T09:13:01Z</time></trkpt><trkpt lat="44.025772764737944" lon="8.174711128570832"><ele>293.0</ele><time>2026-04-04T09:13:03Z</time></trkpt><trkpt lat="44.02576727019225" lon="8.174617723413792"><ele>293.0</ele><time>2026-04-04T09:13:05Z</time></trkpt><trkpt lat="44.02579810297091" lon="8.174529389699524"><ele>293.0</ele><time>2026-04-04T09:13:07Z</time></trkpt><trkpt lat="44.025829923416595" lon="8.174444204808713"><ele>293.0</ele><time>2026-04-04T09:13:09Z</time></trkpt><trkpt lat="44.02583692009197" lon="8.174329141524797"><ele>293.0</ele><time>2026-04-04T09:13:11Z</time></trkpt><trkpt lat="44.025852078862364" lon="8.174189954865797"><ele>293.0</ele><time>2026-04-04T09:13:13Z</time></trkpt><trkpt lat="44.02586207761484" lon="8.174032039278499"><ele>293.0</ele><time>2026-04-04T09:13:15Z</time></trkpt><trkpt lat="44.02588666671949" lon="8.17388077755754"><ele>297.1666666666667</ele><time>2026-04-04T09:13:17Z</time></trkpt><trkpt lat="44.02593620738956" lon="8.173747076794548"><ele>301.33333333333337</ele><time>2026-04-04T09:13:19Z</time></trkpt><trkpt lat="44.02596247728915" lon="8.173615570440282"><ele>305.5</ele><time>2026-04-04T09:13:21Z</time></trkpt><trkpt lat="44.025971250181755" lon="8.17349646008525"><ele>309.6666666666667</ele><time>2026-04-04T09:13:23Z</time></trkpt><trkpt lat="44.025983490227944" lon="8.173402144615903"><ele>313.8333333333333</ele><time>2026-04-04T09:13:25Z</time></trkpt><trkpt lat="44.02600121106307" lon="8.173306759506596"><ele>318.0</ele><time>2026-04-04T09:13:27Z</time></trkpt><trkpt lat="44.02602144073824" lon="8.173169351670209"><ele>320.3333333333333</ele><time>2026-04-04T09:13:29Z</time></trkpt><trkpt lat="44.026035728720046" lon="8.173067716366866"><ele>322.6666666666667</ele><time>2026-04-04T09:13:31Z</time></trkpt><trkpt lat="44.02606831909694" lon="8.172934710597966"><ele>325.0</ele><time>2026-04-04T09:13:33.999Z</time></trkpt><trkpt lat="44.02607950982123" lon="8.172799964882723"><ele>327.33333333333337</ele><time>2026-04-04T09:13:35.999Z</time></trkpt><trkpt lat="44.02603136322665" lon="8.172729687244251"><ele>329.6666666666667</ele><time>2026-04-04T09:13:37.999Z</time></trkpt><trkpt lat="44.02596731160525" lon="8.172661998720487"><ele>332.0</ele><time>2026-04-04T09:13:39.999Z</time></trkpt><trkpt lat="44.02587471765242" lon="8.172635201309397"><ele>330.5</ele><time>2026-04-04T09:13:42.999Z</time></trkpt><trkpt lat="44.02579703109842" lon="8.172610183391358"><ele>329.0</ele><time>2026-04-04T09:13:45.999Z</time></trkpt><trkpt lat="44.02570514116587" lon="8.172587673591408"><ele>327.5</ele><time>2026-04-04T09:13:48.999Z</time></trkpt><trkpt lat="44.02563689300933" lon="8.172551091486095"><ele>326.0</ele><time>2026-04-04T09:13:50.999Z</time></trkpt><trkpt lat="44.025549053629256" lon="8.17250618602491"><ele>324.5</ele><time>2026-04-04T09:14:20Z</time></trkpt><trkpt lat="44.025532111709815" lon="8.172402698467542"><ele>323.0</ele><time>2026-04-04T09:14:22Z</time></trkpt><trkpt lat="44.02549877470841" lon="8.172306617406631"><ele>324.5</ele><time>2026-04-04T09:14:25Z</time></trkpt><trkpt lat="44.025512668982095" lon="8.172397430098897"><ele>326.0</ele><time>2026-04-04T09:14:35Z</time></trkpt><trkpt lat="44.02555148454006" lon="8.172468091226134"><ele>327.5</ele><time>2026-04-04T09:14:37Z</time></trkpt><trkpt lat="44.02560279960368" lon="8.172539847619719"><ele>329.0</ele><time>2026-04-04T09:14:40Z</time></trkpt><trkpt lat="44.025688293783915" lon="8.172592892610165"><ele>330.5</ele><time>2026-04-04T09:15:07Z</time></trkpt><trkpt lat="44.02577145060644" lon="8.172605266705673"><ele>332.0</ele><time>2026-04-04T09:15:10Z</time></trkpt><trkpt lat="44.0258521326588" lon="8.172617965698509"><ele>332.0</ele><time>2026-04-04T09:15:13Z</time></trkpt><trkpt lat="44.025915122887554" lon="8.172652151122948"><ele>332.0</ele><time>2026-04-04T09:15:15Z</time></trkpt><trkpt lat="44.025976825028614" lon="8.17272775381772"><ele>332.0</ele><time>2026-04-04T09:15:17Z</time></trkpt><trkpt lat="44.02608578940747" lon="8.172792912497801"><ele>332.0</ele><time>2026-04-04T09:15:19Z</time></trkpt><trkpt lat="44.02614715761649" lon="8.172835702731359"><ele>332.0</ele><time>2026-04-04T09:15:21Z</time></trkpt><trkpt lat="44.026179267606864" lon="8.172955417147714"><ele>332.0</ele><time>2026-04-04T09:15:23Z</time></trkpt><trkpt lat="44.02619948135345" lon="8.173058927228983"><ele>332.0</ele><time>2026-04-04T09:15:24Z</time></trkpt><trkpt lat="44.02615238235259" lon="8.173135516530648"><ele>332.0</ele><time>2026-04-04T09:15:25Z</time></trkpt><trkpt lat="44.02599097491012" lon="8.173226524666928"><ele>332.0</ele><time>2026-04-04T09:15:26Z</time></trkpt><trkpt lat="44.02597764241727" lon="8.173314840267075"><ele>332.0</ele><time>2026-04-04T09:15:27Z</time></trkpt><trkpt lat="44.02595513404585" lon="8.173482635967632"><ele>332.0</ele><time>2026-04-04T09:15:29Z</time></trkpt><trkpt lat="44.025936669033115" lon="8.173636794149738"><ele>329.6666666666667</ele><time>2026-04-04T09:15:31Z</time></trkpt><trkpt lat="44.025911409423834" lon="8.173769951466074"><ele>327.33333333333337</ele><time>2026-04-04T09:15:32.999Z</time></trkpt><trkpt lat="44.025873667080255" lon="8.173882866580666"><ele>325.0</ele><time>2026-04-04T09:15:33.999Z</time></trkpt><trkpt lat="44.025851983524625" lon="8.173986559313974"><ele>322.6666666666667</ele><time>2026-04-04T09:15:34.999Z</time></trkpt><trkpt lat="44.02584080642087" lon="8.174082792586967"><ele>320.3333333333333</ele><time>2026-04-04T09:15:35.999Z</time></trkpt><trkpt lat="44.02583036427257" lon="8.174170832240092"><ele>318.0</ele><time>2026-04-04T09:15:36.999Z</time></trkpt><trkpt lat="44.02581091130856" lon="8.174334843496618"><ele>317.6666666666667</ele><time>2026-04-04T09:15:38.999Z</time></trkpt><trkpt lat="44.025787054794876" lon="8.17449723967793"><ele>317.3333333333333</ele><time>2026-04-04T09:15:40.999Z</time></trkpt><trkpt lat="44.02575970547906" lon="8.17459601899184"><ele>317.0</ele><time>2026-04-04T09:15:43.999Z</time></trkpt><trkpt lat="44.02574687734716" lon="8.174683622252354"><ele>316.66666666666663</ele><time>2026-04-04T09:15:44.999Z</time></trkpt><trkpt lat="44.02575370762465" lon="8.174795100687417"><ele>316.3333333333333</ele><time>2026-04-04T09:15:46.999Z</time></trkpt><trkpt lat="44.02580768031458" lon="8.17486917413946"><ele>316.0</ele><time>2026-04-04T09:15:47.999Z</time></trkpt><trkpt lat="44.02583649169397" lon="8.174960925910327"><ele>316.0</ele><time>2026-04-04T09:15:48.999Z</time></trkpt><trkpt lat="44.02589745922443" lon="8.17509219055127"><ele>316.0</ele><time>2026-04-04T09:15:50.999Z</time></trkpt><trkpt lat="44.02586687422747" lon="8.17518288292996"><ele>316.0</ele><time>2026-04-04T09:15:52.999Z</time></trkpt><trkpt lat="44.025806715663016" lon="8.175242422597268"><ele>316.0</ele><time>2026-04-04T09:15:53.999Z</time></trkpt><trkpt lat="44.02573705693029" lon="8.175346474028053"><ele>316.0</ele><time>2026-04-04T09:15:55.999Z</time></trkpt><trkpt lat="44.02568200037156" lon="8.175431918756123"><ele>316.0</ele><time>2026-04-04T09:15:57.999Z</time></trkpt><trkpt lat="44.02565266250782" lon="8.175534404596439"><ele>311.0</ele><time>2026-04-04T09:15:58.999Z</time></trkpt><trkpt lat="44.02564844486206" lon="8.175632765951319"><ele>306.0</ele><time>2026-04-04T09:15:59.999Z</time></trkpt><trkpt lat="44.025657750507314" lon="8.175721994332054"><ele>301.0</ele><time>2026-04-04T09:16:00.999Z</time></trkpt><trkpt lat="44.02570294976569" lon="8.175875066838419"><ele>296.0</ele><time>2026-04-04T09:16:02.999Z</time></trkpt><trkpt lat="44.025739085795024" lon="8.17600338591971"><ele>291.0</ele><time>2026-04-04T09:16:04.999Z</time></trkpt><trkpt lat="44.02573327351106" lon="8.176145376072315"><ele>291.0</ele><time>2026-04-04T09:16:06.999Z</time></trkpt><trkpt lat="44.025719548946405" lon="8.17630316162317"><ele>291.0</ele><time>2026-04-04T09:16:08.999Z</time></trkpt><trkpt lat="44.02566991256791" lon="8.17645441970002"><ele>291.0</ele><time>2026-04-04T09:16:10.999Z</time></trkpt><trkpt lat="44.025651664534536" lon="8.17655660899815"><ele>291.0</ele><time>2026-04-04T09:16:11.999Z</time></trkpt><trkpt lat="44.02562979826788" lon="8.176740246551011"><ele>291.0</ele><time>2026-04-04T09:16:14Z</time></trkpt><trkpt lat="44.025619754426195" lon="8.176840501182513"><ele>291.57142857142856</ele><time>2026-04-04T09:16:15Z</time></trkpt><trkpt lat="44.02560902584576" lon="8.176933795559158"><ele>292.1428571428571</ele><time>2026-04-04T09:16:16Z</time></trkpt><trkpt lat="44.02559762764153" lon="8.177030683415413"><ele>292.7142857142857</ele><time>2026-04-04T09:16:17Z</time></trkpt><trkpt lat="44.02557960838557" lon="8.177119512304117"><ele>293.2857142857143</ele><time>2026-04-04T09:16:18Z</time></trkpt><trkpt lat="44.02555722138663" lon="8.177210086031412"><ele>293.8571428571429</ele><time>2026-04-04T09:16:19Z</time></trkpt><trkpt lat="44.025529043061" lon="8.177290521126505"><ele>294.42857142857144</ele><time>2026-04-04T09:16:20Z</time></trkpt><trkpt lat="44.025490106661884" lon="8.177361673271758"><ele>295.0</ele><time>2026-04-04T09:16:21Z</time></trkpt><trkpt lat="44.02539147706192" lon="8.177447045135112"><ele>294.8333333333333</ele><time>2026-04-04T09:16:23Z</time></trkpt><trkpt lat="44.02532686472472" lon="8.177480229743813"><ele>294.66666666666663</ele><time>2026-04-04T09:16:24Z</time></trkpt><trkpt lat="44.025244284222055" lon="8.177498993311223"><ele>294.5</ele><time>2026-04-04T09:16:26Z</time></trkpt><trkpt lat="44.02513461122637" lon="8.177502958012193"><ele>294.3333333333333</ele><time>2026-04-04T09:16:28Z</time></trkpt><trkpt lat="44.02507445364773" lon="8.1775857787365"><ele>294.1666666666667</ele><time>2026-04-04T09:16:29Z</time></trkpt><trkpt lat="44.024997128307184" lon="8.177546439098787"><ele>294.0</ele><time>2026-04-04T09:16:30Z</time></trkpt><trkpt lat="44.02495065339992" lon="8.177451242530129"><ele>294.0</ele><time>2026-04-04T09:16:31Z</time></trkpt><trkpt lat="44.024865516870875" lon="8.17742126259888"><ele>294.0</ele><time>2026-04-04T09:16:32Z</time></trkpt><trkpt lat="44.02474828644961" lon="8.17743352815761"><ele>294.0</ele><time>2026-04-04T09:16:33Z</time></trkpt><trkpt lat="44.024652794629766" lon="8.177468074460231"><ele>294.0</ele><time>2026-04-04T09:16:34Z</time></trkpt><trkpt lat="44.02456102565771" lon="8.17749970706969"><ele>294.0</ele><time>2026-04-04T09:16:35Z</time></trkpt><trkpt lat="44.024467674454534" lon="8.177526314679863"><ele>294.0</ele><time>2026-04-04T09:16:36Z</time></trkpt><trkpt lat="44.02437343648528" lon="8.177548584764772"><ele>294.0</ele><time>2026-04-04T09:16:37Z</time></trkpt><trkpt lat="44.02427942846342" lon="8.177570248930738"><ele>294.0</ele><time>2026-04-04T09:16:38Z</time></trkpt><trkpt lat="44.024174676935914" lon="8.177595546651704"><ele>294.0</ele><time>2026-04-04T09:16:39Z</time></trkpt><trkpt lat="44.024064927119774" lon="8.177622528399445"><ele>294.0</ele><time>2026-04-04T09:16:40Z</time></trkpt><trkpt lat="44.0239619534918" lon="8.177655112563922"><ele>291.0</ele><time>2026-04-04T09:16:41Z</time></trkpt><trkpt lat="44.0238707211213" lon="8.177713879795217"><ele>288.0</ele><time>2026-04-04T09:16:42Z</time></trkpt><trkpt lat="44.02379752018669" lon="8.177809440924607"><ele>285.0</ele><time>2026-04-04T09:16:43Z</time></trkpt><trkpt lat="44.023805884829926" lon="8.177983327918101"><ele>282.0</ele><time>2026-04-04T09:16:44Z</time></trkpt><trkpt lat="44.02387260414804" lon="8.178097668970922"><ele>279.0</ele><time>2026-04-04T09:16:45Z</time></trkpt><trkpt lat="44.02391232399049" lon="8.178202931752358"><ele>278.6666666666667</ele><time>2026-04-04T09:16:46Z</time></trkpt><trkpt lat="44.023968182178976" lon="8.178294971127878"><ele>278.3333333333333</ele><time>2026-04-04T09:16:47Z</time></trkpt><trkpt lat="44.02403040795899" lon="8.178390635858722"><ele>278.0</ele><time>2026-04-04T09:16:48Z</time></trkpt><trkpt lat="44.024041150339386" lon="8.178511430905612"><ele>277.66666666666663</ele><time>2026-04-04T09:16:49Z</time></trkpt><trkpt lat="44.0240419216207" lon="8.178625130605809"><ele>277.3333333333333</ele><time>2026-04-04T09:16:50Z</time></trkpt><trkpt lat="44.02396757418149" lon="8.178693797543412"><ele>277.0</ele><time>2026-04-04T09:16:51Z</time></trkpt><trkpt lat="44.02390222543648" lon="8.178772303124317"><ele>277.0</ele><time>2026-04-04T09:16:52Z</time></trkpt><trkpt lat="44.02383442145084" lon="8.178858381800444"><ele>277.0</ele><time>2026-04-04T09:16:53Z</time></trkpt><trkpt lat="44.023755610253744" lon="8.178923691856415"><ele>277.0</ele><time>2026-04-04T09:16:54Z</time></trkpt><trkpt lat="44.02367530702899" lon="8.178989323053191"><ele>277.0</ele><time>2026-04-04T09:16:55Z</time></trkpt><trkpt lat="44.02358189164083" lon="8.179062339460119"><ele>277.0</ele><time>2026-04-04T09:16:56Z</time></trkpt><trkpt lat="44.023503201152806" lon="8.179139946065572"><ele>282.0</ele><time>2026-04-04T09:16:57Z</time></trkpt><trkpt lat="44.0234351215727" lon="8.179249323350877"><ele>282.0</ele><time>2026-04-04T09:16:58Z</time></trkpt><trkpt lat="44.02337779412245" lon="8.179362033579348"><ele>282.0</ele><time>2026-04-04T09:16:59Z</time></trkpt><trkpt lat="44.02333971289562" lon="8.17944226225066"><ele>282.0</ele><time>2026-04-04T09:17:00Z</time></trkpt><trkpt lat="44.023350365261884" lon="8.179550639074112"><ele>282.0</ele><time>2026-04-04T09:17:03Z</time></trkpt></trkseg><trkseg><trkpt lat="44.007241161901206" lon="8.172867713732476"><ele>9.0</ele><time>2026-04-04T09:55:28.474Z</time></trkpt><trkpt lat="44.00721441695693" lon="8.17295935511957"><ele>9.0</ele><time>2026-04-04T09:56:04.999Z</time></trkpt><trkpt lat="44.00719790693217" lon="8.172851976023077"><ele>9.0</ele><time>2026-04-04T09:56:08.999Z</time></trkpt><trkpt lat="44.00719968748599" lon="8.17274055959647"><ele>9.0</ele><time>2026-04-04T09:56:12.999Z</time></trkpt><trkpt lat="44.00715526200768" lon="8.172668895059493"><ele>9.0</ele><time>2026-04-04T09:56:14.999Z</time></trkpt><trkpt lat="44.007085123875044" lon="8.172582022698606"><ele>9.0</ele><time>2026-04-04T09:56:16.999Z</time></trkpt><trkpt lat="44.0069951175103" lon="8.172492194772053"><ele>9.0</ele><time>2026-04-04T09:56:18.999Z</time></trkpt><trkpt lat="44.00695229463916" lon="8.172426843703095"><ele>9.0</ele><time>2026-04-04T09:56:19.999Z</time></trkpt><trkpt lat="44.00690517022576" lon="8.172364424816864"><ele>9.0</ele><time>2026-04-04T09:56:20.999Z</time></trkpt><trkpt lat="44.00686109520495" lon="8.17229863852154"><ele>9.0</ele><time>2026-04-04T09:56:21.999Z</time></trkpt><trkpt lat="44.00678335127076" lon="8.172175321689794"><ele>9.0</ele><time>2026-04-04T09:56:23.999Z</time></trkpt><trkpt lat="44.006687863455134" lon="8.172094734202084"><ele>9.0</ele><time>2026-04-04T09:56:25.999Z</time></trkpt><trkpt lat="44.00659827491385" lon="8.171989885227132"><ele>9.2</ele><time>2026-04-04T09:56:27.999Z</time></trkpt><trkpt lat="44.00650669174907" lon="8.171894717110334"><ele>9.4</ele><time>2026-04-04T09:56:29.999Z</time></trkpt><trkpt lat="44.006421806124195" lon="8.171791860801347"><ele>9.6</ele><time>2026-04-04T09:56:31.999Z</time></trkpt><trkpt lat="44.00632947132238" lon="8.171686228083457"><ele>9.8</ele><time>2026-04-04T09:56:33.999Z</time></trkpt><trkpt lat="44.00627982281366" lon="8.17162813143752"><ele>10.0</ele><time>2026-04-04T09:56:34.999Z</time></trkpt><trkpt lat="44.0061881964678" lon="8.171513165259048"><ele>10.0</ele><time>2026-04-04T09:56:36.999Z</time></trkpt><trkpt lat="44.00612944233435" lon="8.171465281703929"><ele>10.0</ele><time>2026-04-04T09:56:37.999Z</time></trkpt><trkpt lat="44.006073161725254" lon="8.171414678267139"><ele>10.0</ele><time>2026-04-04T09:56:38.999Z</time></trkpt><trkpt lat="44.00597481367548" lon="8.171309081166521"><ele>10.0</ele><time>2026-04-04T09:56:40.999Z</time></trkpt><trkpt lat="44.00588311532663" lon="8.171211524316565"><ele>10.0</ele><time>2026-04-04T09:56:42.999Z</time></trkpt><trkpt lat="44.00578748660462" lon="8.171126563264705"><ele>9.6</ele><time>2026-04-04T09:56:44.999Z</time></trkpt><trkpt lat="44.005702364766414" lon="8.17104014414792"><ele>9.2</ele><time>2026-04-04T09:56:46.999Z</time></trkpt><trkpt lat="44.00561134937583" lon="8.17097242469411"><ele>8.8</ele><time>2026-04-04T09:56:48.999Z</time></trkpt><trkpt lat="44.00553542476983" lon="8.17089127951811"><ele>8.4</ele><time>2026-04-04T09:56:50.999Z</time></trkpt><trkpt lat="44.005458842062836" lon="8.170821209549489"><ele>8.0</ele><time>2026-04-04T09:56:52.999Z</time></trkpt><trkpt lat="44.00538635716252" lon="8.170742326920067"><ele>7.999999999999999</ele><time>2026-04-04T09:56:54.999Z</time></trkpt><trkpt lat="44.00540422136781" lon="8.170628691572889"><ele>8.0</ele><time>2026-04-04T09:56:56.999Z</time></trkpt><trkpt lat="44.00543015832424" lon="8.17054765008106"><ele>8.0</ele><time>2026-04-04T09:56:58.999Z</time></trkpt><trkpt lat="44.00535862723573" lon="8.17047869081456"><ele>8.0</ele><time>2026-04-04T09:57:00.999Z</time></trkpt><trkpt lat="44.0052856114068" lon="8.170388903024746"><ele>7.999999999999999</ele><time>2026-04-04T09:57:02.999Z</time></trkpt><trkpt lat="44.0052114909185" lon="8.170361897338319"><ele>8.0</ele><time>2026-04-04T09:57:04.999Z</time></trkpt><trkpt lat="44.00515471680883" lon="8.170242572900259"><ele>8.0</ele><time>2026-04-04T09:57:06.999Z</time></trkpt><trkpt lat="44.00511579958885" lon="8.170151102455705"><ele>8.0</ele><time>2026-04-04T09:57:08.999Z</time></trkpt><trkpt lat="44.00512601680104" lon="8.170025909103842"><ele>8.0</ele><time>2026-04-04T09:57:13.999Z</time></trkpt><trkpt lat="44.005191846948435" lon="8.169929044386768"><ele>8.0</ele><time>2026-04-04T09:57:15.999Z</time></trkpt><trkpt lat="44.00526499321201" lon="8.169831626644237"><ele>8.0</ele><time>2026-04-04T09:57:17.999Z</time></trkpt><trkpt lat="44.00532892808277" lon="8.169709939702075"><ele>8.142857142857142</ele><time>2026-04-04T09:57:19.999Z</time></trkpt><trkpt lat="44.005356147471225" lon="8.169608229106123"><ele>8.285714285714285</ele><time>2026-04-04T09:57:22.999Z</time></trkpt><trkpt lat="44.00532467826573" lon="8.169524673114125"><ele>8.428571428571429</ele><time>2026-04-04T09:57:27.999Z</time></trkpt><trkpt lat="44.00527465032539" lon="8.169442955998885"><ele>8.571428571428571</ele><time>2026-04-04T09:57:32.999Z</time></trkpt><trkpt lat="44.005211866716905" lon="8.169381324095133"><ele>8.714285714285715</ele><time>2026-04-04T09:57:37.999Z</time></trkpt><trkpt lat="44.00515608480249" lon="8.1693363491735"><ele>8.857142857142858</ele><time>2026-04-04T09:57:43Z</time></trkpt><trkpt lat="44.00508673755497" lon="8.169307500715682"><ele>9.0</ele><time>2026-04-04T09:57:50Z</time></trkpt><trkpt lat="44.005054587785956" lon="8.1692189656657"><ele>9.0</ele><time>2026-04-04T09:57:55Z</time></trkpt><trkpt lat="44.00505352236859" lon="8.169102855046887"><ele>9.0</ele><time>2026-04-04T09:58:59Z</time></trkpt></trkseg></trk></gpx>